createdAt,value
2024-01-14T00:01:06.465Z,98869.43
2024-01-14T00:04:18.348Z,98864.30
2024-01-14T00:11:55.667Z,98867.92
2024-01-14T00:19:06.809Z,98859.74
2024-01-14T00:22:19.040Z,98839.68
2024-01-14T00:25:31.541Z,98851.52
2024-01-14T00:28:21.143Z,98847.74
2024-01-14T00:31:32.850Z,98840.59
2024-01-14T00:34:45.867Z,98833.59
2024-01-14T00:38:01.322Z,98829.81
2024-01-14T00:41:13.429Z,98821.60
2024-01-14T00:44:27.937Z,98819.26
2024-01-14T00:47:42.265Z,98821.83
2024-01-14T00:50:54.208Z,98811.71
2024-01-14T00:54:05.373Z,98802.98
2024-01-14T00:57:16.523Z,98801.45
2024-01-14T01:00:28.046Z,98804.52
2024-01-14T01:03:23.763Z,98803.16
2024-01-14T01:06:34.972Z,98799.91
2024-01-14T01:09:02.927Z,98788.44
2024-01-14T01:16:33.298Z,98778.67
2024-01-14T01:19:47.604Z,98776.78
2024-01-14T01:23:02.081Z,98769.75
2024-01-14T01:25:54.522Z,98764.79
2024-01-14T01:29:24.700Z,98760.33
2024-01-14T01:32:54.955Z,98758.62
2024-01-14T01:36:07.954Z,98756.39
2024-01-14T01:39:19.950Z,98750.04
2024-01-14T01:42:32.197Z,98743.17
2024-01-14T01:45:43.424Z,98740.27
2024-01-14T01:48:55.846Z,98733.58
2024-01-14T01:52:07.455Z,98727.38
2024-01-14T01:55:21.882Z,98721.90
2024-01-14T01:58:36.016Z,98721.38
2024-01-14T02:01:47.378Z,98717.43
2024-01-14T02:04:43.140Z,98710.55
2024-01-14T02:07:39.751Z,98702.17
2024-01-14T02:10:50.969Z,98697.36
2024-01-14T02:14:02.427Z,98691.72
2024-01-14T02:17:15.955Z,98696.98
2024-01-14T02:20:27.064Z,98687.54
2024-01-14T02:23:38.327Z,98682.38
2024-01-14T02:26:52.599Z,98679.30
2024-01-14T02:29:21.287Z,98677.70
2024-01-14T02:31:49.098Z,98669.29
2024-01-14T02:34:37.543Z,98667.92
2024-01-14T02:37:51.964Z,98660.21
2024-01-14T02:40:53.663Z,98650.42
2024-01-14T02:44:23.530Z,98641.27
2024-01-14T02:47:35.012Z,98634.58
2024-01-14T02:50:47.117Z,98625.66
2024-01-14T02:53:58.403Z,98621.52
2024-01-14T02:57:09.740Z,98620.59
2024-01-14T03:00:22.431Z,98615.43
2024-01-14T03:02:50.126Z,98608.08
2024-01-14T03:05:18.280Z,98601.05
2024-01-14T03:08:29.651Z,98596.02
2024-01-14T03:11:43.863Z,98594.27
2024-01-14T03:14:36.769Z,98590.02
2024-01-14T03:17:48.470Z,98581.79
2024-01-14T03:20:53.459Z,98573.99
2024-01-14T03:24:23.202Z,98572.44
2024-01-14T03:28:02.360Z,98565.89
2024-01-14T03:31:16.973Z,98563.65
2024-01-14T03:34:28.106Z,98562.17
2024-01-14T03:37:40.061Z,98550.85
2024-01-14T03:40:51.165Z,98553.31
2024-01-14T03:43:19.084Z,98544.50
2024-01-14T03:46:30.409Z,98544.08
2024-01-14T03:49:41.763Z,98544.27
2024-01-14T03:52:53.007Z,98544.95
2024-01-14T03:55:55.597Z,98547.98
2024-01-14T04:02:41.485Z,98539.02
2024-01-14T04:14:30.862Z,98535.92
2024-01-14T04:17:41.970Z,98520.58
2024-01-14T04:20:54.450Z,98521.27
2024-01-14T04:24:05.708Z,98514.77
2024-01-14T04:27:17.198Z,98511.23
2024-01-14T04:30:28.801Z,98508.97
2024-01-14T04:33:40.436Z,98506.42
2024-01-14T04:36:08.468Z,98504.20
2024-01-14T04:43:44.295Z,98494.77
2024-01-14T04:51:14.206Z,98488.02
2024-01-14T04:54:18.934Z,98486.68
2024-01-14T05:01:20.862Z,98481.20
2024-01-14T05:04:31.892Z,98479.27
2024-01-14T05:07:43.396Z,98471.10
2024-01-14T05:10:54.467Z,98472.20
2024-01-14T05:14:05.801Z,98463.31
2024-01-14T05:20:54.956Z,98454.65
2024-01-14T05:24:24.876Z,98451.44
2024-01-14T05:27:38.441Z,98449.72
2024-01-14T05:30:49.860Z,98455.80
2024-01-14T05:34:02.474Z,98456.73
2024-01-14T05:37:16.671Z,98454.22
2024-01-14T05:40:27.958Z,98448.29
2024-01-14T05:42:55.559Z,98445.10
2024-01-14T05:57:29.580Z,98450.89
2024-01-14T06:00:16.390Z,98450.36
2024-01-14T06:03:28.819Z,98450.70
2024-01-14T06:06:03.029Z,98449.17
2024-01-14T06:09:12.013Z,98451.40
2024-01-14T06:11:41.418Z,98449.27
2024-01-14T06:14:50.184Z,98451.05
2024-01-14T06:17:18.266Z,98456.23
2024-01-14T06:19:49.194Z,98456.25
2024-01-14T06:23:01.154Z,98454.96
2024-01-14T06:26:06.835Z,98451.60
2024-01-14T06:29:22.572Z,98449.69
2024-01-14T06:32:50.545Z,98444.31
2024-01-14T06:35:38.067Z,98444.17
2024-01-14T06:38:50.484Z,98442.02
2024-01-14T06:42:02.696Z,98435.27
2024-01-14T06:44:30.452Z,98434.17
2024-01-14T06:51:05.372Z,98431.02
2024-01-14T06:54:19.780Z,98431.39
2024-01-14T06:57:33.760Z,98425.02
2024-01-14T07:00:46.270Z,98420.13
2024-01-14T07:03:58.269Z,98418.86
2024-01-14T07:07:10.509Z,98427.05
2024-01-14T07:09:50.773Z,98423.57
2024-01-14T07:19:37.513Z,98422.01
2024-01-14T07:22:49.612Z,98414.78
2024-01-14T07:26:02.211Z,98409.78
2024-01-14T07:29:14.484Z,98411.06
2024-01-14T07:31:42.530Z,98407.59
2024-01-14T07:34:51.347Z,98405.88
2024-01-14T07:38:03.536Z,98405.48
2024-01-14T07:41:35.107Z,98402.58
2024-01-14T07:44:47.257Z,98404.08
2024-01-14T07:47:59.550Z,98402.52
2024-01-14T07:50:27.290Z,98402.71
2024-01-14T07:57:31.375Z,98394.58
2024-01-14T08:00:54.470Z,98398.85
2024-01-14T08:04:12.628Z,98395.84
2024-01-14T08:07:25.186Z,98400.47
2024-01-14T08:10:38.037Z,98396.39
2024-01-14T08:13:51.180Z,98400.14
2024-01-14T08:16:19.248Z,98400.88
2024-01-14T08:19:37.376Z,98401.34
2024-01-14T08:26:19.354Z,98397.66
2024-01-14T08:29:50.059Z,98388.95
2024-01-14T08:37:09.914Z,98388.73
2024-01-14T08:39:51.941Z,98386.76
2024-01-14T08:42:45.658Z,98385.23
2024-01-14T08:45:57.396Z,98382.75
2024-01-14T08:49:11.902Z,98378.93
2024-01-14T08:52:24.014Z,98375.55
2024-01-14T08:55:36.274Z,98376.63
2024-01-14T08:58:49.241Z,98366.85
2024-01-14T09:05:50.373Z,98358.73
2024-01-14T09:09:05.854Z,98354.60
2024-01-14T09:12:20.961Z,98355.55
2024-01-14T09:15:32.905Z,98355.71
2024-01-14T09:18:01.011Z,98350.30
2024-01-14T09:21:16.550Z,98352.73
2024-01-14T09:24:31.697Z,98349.55
2024-01-14T09:27:43.086Z,98342.20
2024-01-14T09:30:55.101Z,98342.88
2024-01-14T09:34:07.319Z,98334.17
2024-01-14T09:37:19.154Z,98332.52
2024-01-14T09:39:50.082Z,98332.39
2024-01-14T09:43:02.482Z,98329.64
2024-01-14T09:46:26.324Z,98324.09
2024-01-14T09:49:39.597Z,98323.20
2024-01-14T09:52:07.579Z,98320.26
2024-01-14T09:55:19.369Z,98315.76
2024-01-14T10:02:51.716Z,98304.55
2024-01-14T10:10:23.592Z,98301.09
2024-01-14T10:17:05.517Z,98289.04
2024-01-14T10:19:55.961Z,98283.64
2024-01-14T10:23:10.940Z,98280.83
2024-01-14T10:26:18.924Z,98276.62
2024-01-14T10:29:30.777Z,98275.36
2024-01-14T10:32:14.621Z,98272.31
2024-01-14T10:34:54.172Z,98269.20
2024-01-14T10:41:58.252Z,98264.74
2024-01-14T10:49:02.987Z,98247.29
2024-01-14T10:52:30.939Z,98243.85
2024-01-14T10:55:45.826Z,98242.38
2024-01-14T10:58:57.737Z,98239.09
2024-01-14T11:02:10.095Z,98238.75
2024-01-14T11:04:50.295Z,98231.23
2024-01-14T11:08:05.112Z,98228.85
2024-01-14T11:11:16.892Z,98225.02
2024-01-14T11:14:29.200Z,98219.21
2024-01-14T11:17:40.086Z,98217.73
2024-01-14T11:21:06.990Z,98217.36
2024-01-14T11:24:30.570Z,98212.66
2024-01-14T11:32:02.388Z,98210.64
2024-01-14T11:35:14.211Z,98211.75
2024-01-14T11:38:26.288Z,98203.53
2024-01-14T11:41:39.031Z,98200.13
2024-01-14T11:44:51.001Z,98195.15
2024-01-14T11:48:02.747Z,98191.54
2024-01-14T11:51:15.130Z,98187.92
2024-01-14T11:54:27.113Z,98189.45
2024-01-14T11:57:39.283Z,98185.82
2024-01-14T12:00:51.644Z,98178.48
2024-01-14T12:03:38.667Z,98179.39
2024-01-14T12:10:39.192Z,98179.33
2024-01-14T12:13:41.549Z,98175.64
2024-01-14T12:16:54.197Z,98175.10
2024-01-14T12:19:57.335Z,98174.28
2024-01-14T12:27:17.737Z,98168.23
2024-01-14T12:30:31.812Z,98165.09
2024-01-14T12:33:45.573Z,98164.42
2024-01-14T12:36:57.517Z,98162.43
2024-01-14T12:40:31.056Z,98160.58
2024-01-14T12:47:33.796Z,98166.45
2024-01-14T12:50:48.631Z,98164.61
2024-01-14T12:54:00.436Z,98165.56
2024-01-14T12:57:19.945Z,98164.40
2024-01-14T13:00:40.820Z,98162.56
2024-01-14T13:03:53.145Z,98168.29
2024-01-14T13:07:11.615Z,98174.40
2024-01-14T13:14:12.789Z,98164.89
2024-01-14T13:21:13.173Z,98173.46
2024-01-14T13:24:27.768Z,98173.17
2024-01-14T13:27:41.948Z,98170.29
2024-01-14T13:30:55.192Z,98167.61
2024-01-14T13:33:23.114Z,98160.84
2024-01-14T13:36:41.713Z,98161.30
2024-01-14T13:39:56.481Z,98157.62
2024-01-14T13:43:08.534Z,98155.45
2024-01-14T13:46:20.408Z,98150.80
2024-01-14T13:49:33.450Z,98158.92
2024-01-14T13:52:45.561Z,98154.29
2024-01-14T14:00:06.031Z,98156.64
2024-01-14T14:03:37.366Z,98156.61
2024-01-14T14:06:53.248Z,98154.82
2024-01-14T14:09:54.950Z,98149.52
2024-01-14T14:12:45.082Z,98146.23
2024-01-14T14:15:57.659Z,98152.30
2024-01-14T14:23:06.458Z,98150.34
2024-01-14T14:30:07.352Z,98146.73
2024-01-14T14:33:20.417Z,98136.35
2024-01-14T14:36:32.281Z,98138.16
2024-01-14T14:39:44.170Z,98139.09
2024-01-14T14:42:56.652Z,98135.45
2024-01-14T14:46:08.597Z,98136.54
2024-01-14T14:49:28.609Z,98134.13
2024-01-14T14:52:43.012Z,98135.95
2024-01-14T14:55:55.217Z,98146.23
2024-01-14T14:58:54.422Z,98150.05
2024-01-14T15:02:08.273Z,98147.92
2024-01-14T15:09:10.274Z,98144.08
2024-01-14T15:16:13.064Z,98136.25
2024-01-14T15:19:26.392Z,98138.98
2024-01-14T15:22:38.815Z,98138.17
2024-01-14T15:25:50.747Z,98141.52
2024-01-14T15:29:02.423Z,98129.42
2024-01-14T15:32:14.817Z,98133.73
2024-01-14T15:35:30.690Z,98130.84
2024-01-14T15:38:46.589Z,98133.33
2024-01-14T15:41:58.716Z,98126.35
2024-01-14T15:45:11.443Z,98125.66
2024-01-14T15:48:23.458Z,98124.19
2024-01-14T15:51:35.280Z,98121.14
2024-01-14T15:55:06.464Z,98122.73
2024-01-14T16:02:41.923Z,98115.52
2024-01-14T16:05:55.161Z,98119.63
2024-01-14T16:08:25.892Z,98117.84
2024-01-14T16:11:37.901Z,98116.73
2024-01-14T16:14:50.236Z,98114.63
2024-01-14T16:18:02.090Z,98114.42
2024-01-14T16:24:29.017Z,98107.09
2024-01-14T16:27:41.949Z,98110.11
2024-01-14T16:31:01.812Z,98110.55
2024-01-14T16:34:22.407Z,98110.15
2024-01-14T16:37:34.981Z,98116.69
2024-01-14T16:41:07.045Z,98110.52
2024-01-14T16:44:38.703Z,98110.42
2024-01-14T16:47:54.596Z,98108.49
2024-01-14T16:55:26.418Z,98093.30
2024-01-14T16:58:39.351Z,98092.02
2024-01-14T17:01:53.034Z,98093.31
2024-01-14T17:04:52.428Z,98096.89
2024-01-14T17:08:04.787Z,98094.16
2024-01-14T17:15:36.372Z,98096.21
2024-01-14T17:18:48.680Z,98097.15
2024-01-14T17:22:02.168Z,98096.23
2024-01-14T17:25:13.696Z,98097.64
2024-01-14T17:28:26.061Z,98097.38
2024-01-14T17:31:38.484Z,98095.61
2024-01-14T17:34:51.719Z,98095.24
2024-01-14T17:42:23.896Z,98088.96
2024-01-14T17:45:39.056Z,98085.76
2024-01-14T17:48:55.044Z,98090.09
2024-01-14T17:56:28.144Z,98080.95
2024-01-14T17:59:07.247Z,98077.37
2024-01-14T18:01:35.239Z,98078.50
2024-01-14T18:05:06.278Z,98074.31
2024-01-14T18:08:37.662Z,98069.21
2024-01-14T18:11:49.794Z,98069.59
2024-01-14T18:19:01.197Z,98064.87
2024-01-14T18:22:13.371Z,98064.33
2024-01-14T18:29:17.604Z,98065.56
2024-01-14T18:32:29.671Z,98062.95
2024-01-14T18:35:43.280Z,98059.83
2024-01-14T18:38:56.685Z,98050.42
2024-01-14T18:42:09.186Z,98044.56
2024-01-14T18:45:21.351Z,98051.77
2024-01-14T18:48:33.340Z,98045.49
2024-01-14T18:51:48.513Z,98039.30
2024-01-14T18:55:00.900Z,98043.43
2024-01-14T18:58:13.159Z,98035.20
2024-01-14T19:01:25.258Z,98032.69
2024-01-14T19:04:37.350Z,98036.82
2024-01-14T19:07:49.736Z,98029.60
2024-01-14T19:11:01.722Z,98034.17
2024-01-14T19:14:13.963Z,98028.84
2024-01-14T19:17:31.060Z,98030.14
2024-01-14T19:20:44.648Z,98031.40
2024-01-14T19:23:56.705Z,98030.66
2024-01-14T19:27:08.557Z,98028.58
2024-01-14T19:29:54.926Z,98031.13
2024-01-14T19:40:15.825Z,98025.56
2024-01-14T19:43:15.187Z,98018.46
2024-01-14T19:45:55.628Z,98014.95
2024-01-14T19:48:24.798Z,98010.73
2024-01-14T19:51:54.806Z,98009.73
2024-01-14T19:54:53.735Z,98007.21
2024-01-14T19:58:06.417Z,98009.16
2024-01-14T20:01:17.537Z,98008.78
2024-01-14T20:04:28.131Z,98011.29
2024-01-14T20:12:18.100Z,98003.57
2024-01-14T20:14:51.597Z,98002.75
2024-01-14T20:18:03.734Z,98003.91
2024-01-14T20:21:15.210Z,98011.73
2024-01-14T20:24:30.140Z,98011.61
2024-01-14T20:28:00.454Z,98005.10
2024-01-14T20:30:33.787Z,98002.26
2024-01-14T20:37:52.521Z,97996.63
2024-01-14T20:40:20.503Z,97994.17
2024-01-14T20:51:56.648Z,97989.80
2024-01-14T20:54:23.827Z,97993.01
2024-01-14T20:57:32.005Z,97990.40
2024-01-14T21:00:42.820Z,97998.64
2024-01-14T21:04:12.671Z,97999.39
2024-01-14T21:07:25.765Z,98000.61
2024-01-14T21:09:56.347Z,98005.23
2024-01-14T21:12:24.176Z,98005.73
2024-01-14T21:15:02.675Z,98007.09
2024-01-14T21:18:14.196Z,98006.75
2024-01-14T21:21:26.295Z,98010.01
2024-01-14T21:24:37.359Z,98007.75
2024-01-14T21:27:48.342Z,98009.95
2024-01-14T21:34:04.376Z,98005.95
2024-01-14T21:36:39.112Z,98006.89
2024-01-14T21:39:53.511Z,98005.35
2024-01-14T21:42:26.206Z,98006.90
2024-01-14T21:45:37.106Z,98004.90
2024-01-14T21:48:48.059Z,98004.89
2024-01-14T21:51:53.442Z,98006.21
2024-01-14T21:54:29.587Z,98002.11
2024-01-14T21:57:50.366Z,98002.33
2024-01-14T22:00:17.565Z,98004.61
2024-01-14T22:02:44.341Z,98000.45
2024-01-14T22:05:52.474Z,98001.56
2024-01-14T22:08:25.660Z,98003.79
2024-01-14T22:11:36.490Z,98005.62
2024-01-14T22:14:50.220Z,98005.11
2024-01-14T22:17:51.446Z,98002.92
2024-01-14T22:21:22.327Z,98005.27
2024-01-14T22:24:33.365Z,97998.07
2024-01-14T22:27:45.123Z,97997.89
2024-01-14T22:34:56.600Z,98000.98
2024-01-14T22:38:08.002Z,98000.70
2024-01-14T22:41:18.827Z,98002.60
2024-01-14T22:48:37.570Z,97992.24
2024-01-14T22:51:48.722Z,97994.64
2024-01-14T22:55:02.915Z,97987.75
2024-01-14T22:57:29.739Z,97988.15
2024-01-14T23:00:47.562Z,97983.32
2024-01-14T23:03:26.539Z,97988.38
2024-01-14T23:06:37.834Z,97981.24
2024-01-14T23:09:10.502Z,97979.97
2024-01-14T23:11:43.565Z,97979.23
2024-01-14T23:14:42.259Z,97977.50
2024-01-14T23:17:08.874Z,97977.55
2024-01-14T23:19:41.990Z,97982.27
2024-01-14T23:23:13.160Z,97982.94
2024-01-14T23:25:40.160Z,97983.19
2024-01-14T23:28:06.905Z,97985.75
2024-01-14T23:31:05.765Z,97983.53
2024-01-14T23:33:38.527Z,97981.52
2024-01-14T23:36:50.129Z,97981.91
2024-01-14T23:39:25.830Z,97978.60
2024-01-14T23:41:58.555Z,97980.48
2024-01-14T23:45:09.383Z,97982.31
2024-01-14T23:48:20.815Z,97977.49
2024-01-14T23:54:42.069Z,97980.22
2024-01-14T23:57:41.287Z,97982.88
